Downing, Wisconsin
Current Conditions -  °F | °C
As of 7:35 PM on Tuesday 25 Nov 2014 (Local Time) from KLUM Reporting Station
Overcast Overcast  
Wind Chill: 23°   Ceiling: 6000
Heat Index: 23°   Visibility: 10mi
Dew Point: 16°   Wind: 3mph
Humidity: 74%   Direction: 140°SE
Pressure: 30.05"   Gusts: NA
Location:  45.05°N, 92.13°W
Report Text: KLUM 260135Z AUTO 14003KT 10SM OVC060 M05/M09 A3005 RMK AO2 T10501090
Loading
Personal Weather Stations






























Interactive Weather Map New forecast layout! Learn more

10-Day Weather Forecast

Advertisements
Track Severe Weather on mobile